createdAt,value
2023-05-06T00:00:55.914Z,14.04
2023-05-06T00:03:24.036Z,14.03
2023-05-06T00:05:53.634Z,13.94
2023-05-06T00:08:21.659Z,13.86
2023-05-06T00:10:49.478Z,13.86
2023-05-06T00:13:17.312Z,13.81
2023-05-06T00:15:45.120Z,13.92
2023-05-06T00:18:15.004Z,13.94
2023-05-06T00:20:42.871Z,13.89
2023-05-06T00:23:12.086Z,13.88
2023-05-06T00:25:39.916Z,13.89
2023-05-06T00:28:07.778Z,13.91
2023-05-06T00:30:35.634Z,13.81
2023-05-06T00:33:03.518Z,13.86
2023-05-06T00:35:31.436Z,13.74
2023-05-06T00:38:08.552Z,13.76
2023-05-06T00:40:37.860Z,13.68
2023-05-06T00:43:05.744Z,13.63
2023-05-06T00:45:34.085Z,13.67
2023-05-06T00:48:02.492Z,13.61
2023-05-06T00:50:32.509Z,13.49
2023-05-06T00:53:01.474Z,13.53
2023-05-06T00:55:29.849Z,13.53
2023-05-06T00:57:59.356Z,13.60
2023-05-06T01:00:27.248Z,13.62
2023-05-06T01:02:55.193Z,13.61
2023-05-06T01:05:27.197Z,13.69
2023-05-06T01:08:05.643Z,13.57
2023-05-06T01:10:43.184Z,13.54
2023-05-06T01:13:22.262Z,13.46
2023-05-06T01:15:55.989Z,13.52
2023-05-06T01:18:28.265Z,13.55
2023-05-06T01:20:57.928Z,13.53
2023-05-06T01:23:27.100Z,13.53
2023-05-06T01:25:54.885Z,13.57
2023-05-06T01:28:22.771Z,13.59
2023-05-06T01:31:00.545Z,13.55
2023-05-06T01:33:41.831Z,13.53
2023-05-06T01:36:16.938Z,13.38
2023-05-06T01:38:58.940Z,13.43
2023-05-06T01:41:29.104Z,13.53
2023-05-06T01:44:01.194Z,13.46
2023-05-06T01:46:32.034Z,13.56
2023-05-06T01:49:05.880Z,13.60
2023-05-06T01:51:34.027Z,13.66
2023-05-06T01:54:03.590Z,13.70
2023-05-06T01:56:31.991Z,13.61
2023-05-06T01:59:00.144Z,13.64
2023-05-06T02:01:28.121Z,13.54
2023-05-06T02:03:56.141Z,13.45
2023-05-06T02:06:24.186Z,13.33
2023-05-06T02:08:52.649Z,13.23
2023-05-06T02:11:21.894Z,13.18
2023-05-06T02:13:49.695Z,13.18
2023-05-06T02:16:17.565Z,13.12
2023-05-06T02:18:47.941Z,13.11
2023-05-06T02:21:15.789Z,13.07
2023-05-06T02:23:43.572Z,12.92
2023-05-06T02:26:11.613Z,12.92
2023-05-06T02:28:41.035Z,12.97
2023-05-06T02:31:08.973Z,12.99
2023-05-06T02:33:36.801Z,12.94
2023-05-06T02:36:05.101Z,13.08
2023-05-06T02:38:32.939Z,12.97
2023-05-06T02:41:00.772Z,13.06
2023-05-06T02:43:28.562Z,13.03
2023-05-06T02:45:57.862Z,12.92
2023-05-06T02:48:25.788Z,12.87
2023-05-06T02:50:53.721Z,12.86
2023-05-06T02:53:21.533Z,12.76
2023-05-06T02:55:49.329Z,12.72
2023-05-06T02:58:17.130Z,12.83
2023-05-06T03:00:45.029Z,12.88
2023-05-06T03:03:14.220Z,12.91
2023-05-06T03:05:42.085Z,12.81
2023-05-06T03:08:09.981Z,12.83
2023-05-06T03:10:37.775Z,12.79
2023-05-06T03:13:05.695Z,12.78
2023-05-06T03:15:33.597Z,12.75
2023-05-06T03:18:01.503Z,12.83
2023-05-06T03:20:30.829Z,13.03
2023-05-06T03:22:58.661Z,12.95
2023-05-06T03:25:26.446Z,12.82
2023-05-06T03:27:54.261Z,12.78
2023-05-06T03:30:22.087Z,12.76
2023-05-06T03:32:50.012Z,12.74
2023-05-06T03:35:18.383Z,12.68
2023-05-06T03:37:47.569Z,12.60
2023-05-06T03:40:15.550Z,12.61
2023-05-06T03:42:43.388Z,12.60
2023-05-06T03:45:11.690Z,12.59
2023-05-06T03:47:39.799Z,12.55
2023-05-06T03:50:08.531Z,12.54
2023-05-06T03:52:36.934Z,12.42
2023-05-06T03:55:07.011Z,12.43
2023-05-06T03:57:35.172Z,12.43
2023-05-06T04:00:03.059Z,12.41
2023-05-06T04:02:31.035Z,12.35
2023-05-06T04:04:59.124Z,12.36
2023-05-06T04:07:26.946Z,12.40
2023-05-06T04:09:54.823Z,12.43
2023-05-06T04:12:24.000Z,12.46
2023-05-06T04:14:51.878Z,12.50
2023-05-06T04:17:19.729Z,12.47
2023-05-06T04:19:47.601Z,12.40
2023-05-06T04:22:15.446Z,12.42
2023-05-06T04:24:45.600Z,12.40
2023-05-06T04:27:13.506Z,12.38
2023-05-06T04:29:42.843Z,12.46
2023-05-06T04:32:11.753Z,12.49
2023-05-06T04:34:39.659Z,12.56
2023-05-06T04:37:07.520Z,12.58
2023-05-06T04:39:36.959Z,12.58
2023-05-06T04:42:05.117Z,12.66
2023-05-06T04:44:34.052Z,12.60
2023-05-06T04:47:03.344Z,12.63
2023-05-06T04:49:31.324Z,12.59
2023-05-06T04:51:59.138Z,12.60
2023-05-06T04:54:26.944Z,12.52
2023-05-06T04:56:55.689Z,12.61
2023-05-06T04:59:23.522Z,12.66
2023-05-06T05:01:51.391Z,12.72
2023-05-06T05:04:20.762Z,12.75
2023-05-06T05:06:48.582Z,12.77
2023-05-06T05:09:16.433Z,12.78
2023-05-06T05:11:44.254Z,12.78
2023-05-06T05:14:12.101Z,12.83
2023-05-06T05:16:40.081Z,12.90
2023-05-06T05:19:09.514Z,12.93
2023-05-06T05:21:39.819Z,12.94
2023-05-06T05:24:07.782Z,12.92
2023-05-06T05:26:35.598Z,12.91
2023-05-06T05:29:03.396Z,12.98
2023-05-06T05:31:32.108Z,12.95
2023-05-06T05:34:00.001Z,12.93
2023-05-06T05:36:28.243Z,12.96
2023-05-06T05:38:58.087Z,13.01
2023-05-06T05:41:26.751Z,13.10
2023-05-06T05:43:54.611Z,13.07
2023-05-06T05:46:22.545Z,12.96
2023-05-06T05:48:50.531Z,12.94
2023-05-06T05:51:18.351Z,12.90
2023-05-06T05:53:46.275Z,12.75
2023-05-06T05:56:15.829Z,12.71
2023-05-06T05:58:43.680Z,12.77
2023-05-06T06:01:11.538Z,12.73
2023-05-06T06:03:40.153Z,12.73
2023-05-06T06:06:08.370Z,12.77
2023-05-06T06:08:36.370Z,12.61
2023-05-06T06:11:05.812Z,12.63
2023-05-06T06:13:35.043Z,12.61
2023-05-06T06:16:03.040Z,12.61
2023-05-06T06:18:30.895Z,12.53
2023-05-06T06:20:58.716Z,12.58
2023-05-06T06:23:26.600Z,12.54
2023-05-06T06:25:54.426Z,12.89
2023-05-06T06:28:22.414Z,13.01
2023-05-06T06:30:51.642Z,13.18
2023-05-06T06:33:19.472Z,13.32
2023-05-06T06:35:47.363Z,13.33
2023-05-06T06:38:15.173Z,13.27
2023-05-06T06:40:43.016Z,13.17
2023-05-06T06:43:10.823Z,12.97
2023-05-06T06:45:38.712Z,12.88
2023-05-06T06:48:08.074Z,13.00
2023-05-06T06:50:35.912Z,12.86
2023-05-06T06:53:05.603Z,12.84
2023-05-06T06:55:34.274Z,12.88
2023-05-06T06:58:02.172Z,12.75
2023-05-06T07:00:30.181Z,12.76
2023-05-06T07:02:58.086Z,12.90
2023-05-06T07:05:27.895Z,12.94
2023-05-06T07:07:56.278Z,12.86
2023-05-06T07:10:24.392Z,12.84
2023-05-06T07:12:52.367Z,13.13
2023-05-06T07:15:20.612Z,13.48
2023-05-06T07:17:48.539Z,13.64
2023-05-06T07:20:16.642Z,13.66
2023-05-06T07:22:45.923Z,13.71
2023-05-06T07:25:13.974Z,14.31
2023-05-06T07:27:41.982Z,14.44
2023-05-06T07:30:10.509Z,13.98
2023-05-06T07:32:38.588Z,14.30
2023-05-06T07:35:06.965Z,14.54
2023-05-06T07:37:34.862Z,14.67
2023-05-06T07:40:04.417Z,14.33
2023-05-06T07:42:32.396Z,14.62
2023-05-06T07:45:00.283Z,14.84
2023-05-06T07:47:31.438Z,14.97
2023-05-06T07:49:59.947Z,14.63
2023-05-06T07:52:28.605Z,14.78
2023-05-06T07:54:56.479Z,14.81
2023-05-06T07:57:25.734Z,14.74
2023-05-06T07:59:54.249Z,15.13
2023-05-06T08:02:22.319Z,14.84
2023-05-06T08:04:51.591Z,15.01
2023-05-06T08:07:19.951Z,15.28
2023-05-06T08:09:47.781Z,15.30
2023-05-06T08:12:15.893Z,15.29
2023-05-06T08:14:45.483Z,15.32
2023-05-06T08:17:14.168Z,15.85
2023-05-06T08:19:41.931Z,15.25
2023-05-06T08:22:09.785Z,15.37
2023-05-06T08:24:37.642Z,15.49
2023-05-06T08:27:05.501Z,15.46
2023-05-06T08:29:33.445Z,15.25
2023-05-06T08:32:02.851Z,14.96
2023-05-06T08:34:30.944Z,15.09
2023-05-06T08:36:58.699Z,15.61
2023-05-06T08:39:27.929Z,15.95
2023-05-06T08:42:02.094Z,16.28
2023-05-06T08:44:30.547Z,16.42
2023-05-06T08:46:58.582Z,16.31
2023-05-06T08:49:28.058Z,16.10
2023-05-06T08:51:56.774Z,16.00
2023-05-06T08:54:26.658Z,15.64
2023-05-06T08:56:58.675Z,16.08
2023-05-06T08:59:30.443Z,16.43
2023-05-06T09:01:58.309Z,16.63
2023-05-06T09:04:27.643Z,16.75
2023-05-06T09:06:55.539Z,16.59
2023-05-06T09:09:23.360Z,17.23
2023-05-06T09:11:54.158Z,16.52
2023-05-06T09:14:23.326Z,16.65
2023-05-06T09:16:53.662Z,16.84
2023-05-06T09:19:23.200Z,16.61
2023-05-06T09:21:53.095Z,17.04
2023-05-06T09:24:21.686Z,17.04
2023-05-06T09:26:49.508Z,17.08
2023-05-06T09:29:17.321Z,16.57
2023-05-06T09:31:46.588Z,16.47
2023-05-06T09:34:17.434Z,16.23
2023-05-06T09:36:45.446Z,16.37
2023-05-06T09:39:14.735Z,17.08
2023-05-06T09:41:44.255Z,17.66
2023-05-06T09:44:12.711Z,18.06
2023-05-06T09:46:41.342Z,17.63
2023-05-06T09:49:10.183Z,16.75
2023-05-06T09:51:38.712Z,16.40
2023-05-06T09:54:07.738Z,16.96
2023-05-06T09:56:38.545Z,17.45
2023-05-06T09:59:08.693Z,17.94
2023-05-06T10:01:37.909Z,18.11
2023-05-06T10:04:10.135Z,17.51
2023-05-06T10:06:41.685Z,18.05
2023-05-06T10:09:10.492Z,18.65
2023-05-06T10:11:40.552Z,18.66
2023-05-06T10:14:09.763Z,19.46
2023-05-06T10:16:40.139Z,18.53
2023-05-06T10:19:09.815Z,18.21
2023-05-06T10:21:41.106Z,17.81
2023-05-06T10:24:12.824Z,18.56
2023-05-06T10:26:46.878Z,18.34
2023-05-06T10:29:14.995Z,18.89
2023-05-06T10:31:50.131Z,18.93
2023-05-06T10:34:22.215Z,19.05
2023-05-06T10:36:56.559Z,18.27
2023-05-06T10:39:25.914Z,17.79
2023-05-06T10:41:55.347Z,18.68
2023-05-06T10:44:56.750Z,18.52
2023-05-06T10:47:24.727Z,18.20
2023-05-06T10:50:20.002Z,17.96
2023-05-06T10:52:49.642Z,17.92
2023-05-06T10:55:29.166Z,18.35
2023-05-06T10:58:01.307Z,18.37
2023-05-06T11:00:32.089Z,18.74
2023-05-06T11:03:03.862Z,19.09
2023-05-06T11:05:31.982Z,19.44
2023-05-06T11:08:11.046Z,19.52
2023-05-06T11:10:39.118Z,19.09
2023-05-06T11:13:28.555Z,18.48
2023-05-06T11:15:57.255Z,18.66
2023-05-06T11:18:44.742Z,18.84
2023-05-06T11:21:40.644Z,19.13
2023-05-06T11:24:09.969Z,18.76
2023-05-06T11:26:37.778Z,18.83
2023-05-06T11:29:07.296Z,18.70
2023-05-06T11:31:41.078Z,18.37
2023-05-06T11:34:12.276Z,18.46
2023-05-06T11:36:47.923Z,18.39
2023-05-06T11:39:16.277Z,18.55
2023-05-06T11:41:44.169Z,18.85
2023-05-06T11:44:14.761Z,18.60
2023-05-06T11:46:44.929Z,18.58
2023-05-06T11:49:15.439Z,18.75
2023-05-06T11:51:43.291Z,18.92
2023-05-06T11:54:12.136Z,19.23
2023-05-06T11:56:51.691Z,19.65
2023-05-06T11:59:30.344Z,19.43
2023-05-06T12:02:00.159Z,19.34
2023-05-06T12:04:28.291Z,19.67
2023-05-06T12:06:58.004Z,19.77
2023-05-06T12:09:26.561Z,19.61
2023-05-06T12:11:55.070Z,19.70
2023-05-06T12:14:24.599Z,19.67
2023-05-06T12:16:55.437Z,19.30
2023-05-06T12:19:24.366Z,19.53
2023-05-06T12:21:52.359Z,19.88
2023-05-06T12:24:28.864Z,20.07
2023-05-06T12:26:57.070Z,20.00
2023-05-06T12:29:26.276Z,20.12
2023-05-06T12:32:10.187Z,20.09
2023-05-06T12:34:39.423Z,20.50
2023-05-06T12:37:08.686Z,20.74
2023-05-06T12:39:38.311Z,20.25
2023-05-06T12:42:07.599Z,20.17
2023-05-06T12:44:38.776Z,20.33
2023-05-06T12:47:08.568Z,20.56
2023-05-06T12:49:47.264Z,20.42
2023-05-06T12:52:15.398Z,19.87
2023-05-06T12:54:43.241Z,20.23
2023-05-06T12:57:11.352Z,20.68
2023-05-06T12:59:40.964Z,20.45
2023-05-06T13:02:08.866Z,20.65
2023-05-06T13:04:36.920Z,21.12
2023-05-06T13:07:04.846Z,21.09
2023-05-06T13:09:32.752Z,20.91
2023-05-06T13:12:01.063Z,21.04
2023-05-06T13:14:28.898Z,20.19
2023-05-06T13:17:01.177Z,20.46
2023-05-06T13:19:32.806Z,20.42
2023-05-06T13:22:01.822Z,20.48
2023-05-06T13:24:30.770Z,20.24
2023-05-06T13:27:00.755Z,20.40
2023-05-06T13:29:29.610Z,20.47
2023-05-06T13:31:58.993Z,21.05
2023-05-06T13:34:26.899Z,20.92
2023-05-06T13:36:56.657Z,20.90
2023-05-06T13:39:25.120Z,21.12
2023-05-06T13:41:54.159Z,21.00
2023-05-06T13:44:24.464Z,21.46
2023-05-06T13:46:52.510Z,20.58
2023-05-06T13:49:21.817Z,21.24
2023-05-06T13:51:49.928Z,21.15
2023-05-06T13:54:20.112Z,20.58
2023-05-06T13:56:47.923Z,20.54
2023-05-06T13:59:15.736Z,21.08
2023-05-06T14:01:44.153Z,20.94
2023-05-06T14:04:12.357Z,21.02
2023-05-06T14:06:41.889Z,21.41
2023-05-06T14:09:09.770Z,21.12
2023-05-06T14:11:37.600Z,20.84
2023-05-06T14:14:06.546Z,20.83
2023-05-06T14:16:34.465Z,21.04
2023-05-06T14:19:02.401Z,20.84
2023-05-06T14:21:30.598Z,21.10
2023-05-06T14:23:59.793Z,21.43
2023-05-06T14:26:27.880Z,21.20
2023-05-06T14:28:55.953Z,21.46
2023-05-06T14:31:24.427Z,21.88
2023-05-06T14:33:52.312Z,21.16
2023-05-06T14:36:20.795Z,20.57
2023-05-06T14:38:48.844Z,20.64
2023-05-06T14:41:18.013Z,20.67
2023-05-06T14:43:46.513Z,20.20
2023-05-06T14:46:15.900Z,20.26
2023-05-06T14:48:45.337Z,20.14
2023-05-06T14:51:13.204Z,20.25
2023-05-06T14:53:41.309Z,20.33
2023-05-06T14:56:10.829Z,20.30
2023-05-06T14:58:40.309Z,20.39
2023-05-06T15:01:08.189Z,20.22
2023-05-06T15:03:36.280Z,20.60
2023-05-06T15:06:04.491Z,20.44
2023-05-06T15:08:32.469Z,20.26
2023-05-06T15:11:03.118Z,20.30
2023-05-06T15:13:31.834Z,20.47
2023-05-06T15:16:00.959Z,21.48
2023-05-06T15:18:28.860Z,21.94
2023-05-06T15:20:58.664Z,22.55
2023-05-06T15:23:26.630Z,23.40
2023-05-06T15:25:55.129Z,23.37
2023-05-06T15:28:24.537Z,23.08
2023-05-06T15:30:52.739Z,23.53
2023-05-06T15:33:22.030Z,22.90
2023-05-06T15:35:49.880Z,23.07
2023-05-06T15:38:17.719Z,22.87
2023-05-06T15:40:52.235Z,22.71
2023-05-06T15:43:23.589Z,22.36
2023-05-06T15:45:52.099Z,22.17
2023-05-06T15:48:21.479Z,21.96
2023-05-06T15:50:51.461Z,22.59
2023-05-06T15:53:20.191Z,22.16
2023-05-06T15:55:56.720Z,22.18
2023-05-06T15:58:25.790Z,22.27
2023-05-06T16:00:53.664Z,21.92
2023-05-06T16:03:22.950Z,21.71
2023-05-06T16:05:50.996Z,21.13
2023-05-06T16:08:18.798Z,21.48
2023-05-06T16:10:51.752Z,21.59
2023-05-06T16:13:20.343Z,21.61
2023-05-06T16:15:48.783Z,21.76
2023-05-06T16:18:16.804Z,22.03
2023-05-06T16:20:46.030Z,22.38
2023-05-06T16:23:18.083Z,22.02
2023-05-06T16:25:48.071Z,21.47
2023-05-06T16:28:15.976Z,21.53
2023-05-06T16:30:46.780Z,21.75
2023-05-06T16:33:14.811Z,21.75
2023-05-06T16:35:42.738Z,22.10
2023-05-06T16:38:11.955Z,21.97
2023-05-06T16:40:47.716Z,21.33
2023-05-06T16:43:15.550Z,21.26
2023-05-06T16:45:45.253Z,21.45
2023-05-06T16:48:13.928Z,21.38
2023-05-06T16:50:42.689Z,21.17
2023-05-06T16:53:12.178Z,21.37
2023-05-06T16:55:40.040Z,20.93
2023-05-06T16:58:07.974Z,20.89
2023-05-06T17:00:35.804Z,21.18
2023-05-06T17:03:03.797Z,21.10
2023-05-06T17:05:31.868Z,21.24
2023-05-06T17:07:59.696Z,21.46
2023-05-06T17:10:29.463Z,21.50
2023-05-06T17:12:57.760Z,21.43
2023-05-06T17:15:25.754Z,21.75
2023-05-06T17:17:53.678Z,22.16
2023-05-06T17:20:22.681Z,21.82
2023-05-06T17:22:51.012Z,21.99
2023-05-06T17:25:18.980Z,21.98
2023-05-06T17:27:48.117Z,21.81
2023-05-06T17:30:18.204Z,21.71
2023-05-06T17:32:46.103Z,21.66
2023-05-06T17:35:15.638Z,21.76
2023-05-06T17:37:44.174Z,21.42
2023-05-06T17:40:15.105Z,21.39
2023-05-06T17:42:43.004Z,21.52
2023-05-06T17:45:13.092Z,21.51
2023-05-06T17:47:40.957Z,21.20
2023-05-06T17:50:09.879Z,20.85
2023-05-06T17:52:37.698Z,20.59
2023-05-06T17:57:38.964Z,20.09
2023-05-06T18:00:09.246Z,19.93
2023-05-06T18:02:38.586Z,19.76
2023-05-06T18:05:08.373Z,19.65
2023-05-06T18:07:36.544Z,19.59
2023-05-06T18:10:04.514Z,19.52
2023-05-06T18:12:32.455Z,19.18
2023-05-06T18:15:00.675Z,18.81
2023-05-06T18:17:28.604Z,18.67
2023-05-06T18:19:57.859Z,18.63
2023-05-06T18:22:25.800Z,18.60
2023-05-06T18:24:55.385Z,18.45
2023-05-06T18:27:23.826Z,18.14
2023-05-06T18:29:51.983Z,18.04
2023-05-06T18:32:19.863Z,17.69
2023-05-06T18:34:47.737Z,17.57
2023-05-06T18:37:16.955Z,17.63
2023-05-06T18:39:45.432Z,17.74
2023-05-06T18:42:13.352Z,17.40
2023-05-06T18:44:42.810Z,17.26
2023-05-06T18:47:10.857Z,17.21
2023-05-06T18:49:38.869Z,17.13
2023-05-06T18:52:06.785Z,17.10
2023-05-06T18:54:35.973Z,17.19
2023-05-06T18:57:04.162Z,16.98
2023-05-06T18:59:32.206Z,16.84
2023-05-06T19:02:00.573Z,16.70
2023-05-06T19:04:28.586Z,16.70
2023-05-06T19:06:56.518Z,16.53
2023-05-06T19:09:24.341Z,16.26
2023-05-06T19:11:53.592Z,16.27
2023-05-06T19:14:22.917Z,16.27
2023-05-06T19:16:51.400Z,16.16
2023-05-06T19:19:19.300Z,16.16
2023-05-06T19:21:47.230Z,16.22
2023-05-06T19:24:15.222Z,16.41
2023-05-06T19:26:43.057Z,16.22
2023-05-06T19:29:12.642Z,16.07
2023-05-06T19:31:40.459Z,16.06
2023-05-06T19:34:08.393Z,16.14
2023-05-06T19:36:36.229Z,16.09
2023-05-06T19:39:04.333Z,16.21
2023-05-06T19:41:32.315Z,15.99
2023-05-06T19:44:00.157Z,15.77
2023-05-06T19:46:29.403Z,15.86
2023-05-06T19:48:58.091Z,15.81
2023-05-06T19:51:25.906Z,15.80
2023-05-06T19:53:53.763Z,15.82
2023-05-06T19:56:21.821Z,15.58
2023-05-06T19:58:50.914Z,15.46
2023-05-06T20:01:22.455Z,15.35
2023-05-06T20:03:51.814Z,15.63
2023-05-06T20:06:19.772Z,15.36
2023-05-06T20:08:47.615Z,15.39
2023-05-06T20:11:15.507Z,15.27
2023-05-06T20:13:43.323Z,15.34
2023-05-06T20:16:11.443Z,15.50
2023-05-06T20:18:40.941Z,15.42
2023-05-06T20:21:10.203Z,15.28
2023-05-06T20:23:37.998Z,15.18
2023-05-06T20:26:05.851Z,15.16
2023-05-06T20:28:34.946Z,15.20
2023-05-06T20:31:02.981Z,15.09
2023-05-06T20:33:30.837Z,14.89
2023-05-06T20:35:58.907Z,14.97
2023-05-06T20:38:30.795Z,14.99
2023-05-06T20:40:59.241Z,14.97
2023-05-06T20:43:27.043Z,14.89
2023-05-06T20:45:54.940Z,14.89
2023-05-06T20:48:22.849Z,14.77
2023-05-06T20:50:52.704Z,14.83
2023-05-06T20:53:20.590Z,14.93
2023-05-06T20:55:49.852Z,14.85
2023-05-06T20:58:17.677Z,15.04
2023-05-06T21:00:45.637Z,15.20
2023-05-06T21:03:13.622Z,15.35
2023-05-06T21:05:41.549Z,15.45
2023-05-06T21:08:09.383Z,15.38
2023-05-06T21:10:37.221Z,15.39
2023-05-06T21:13:06.920Z,15.35
2023-05-06T21:15:34.984Z,15.31
2023-05-06T21:18:06.091Z,15.31
2023-05-06T21:20:34.020Z,15.29
2023-05-06T21:23:03.445Z,15.31
2023-05-06T21:25:31.299Z,15.38
2023-05-06T21:28:03.242Z,15.34
2023-05-06T21:30:32.482Z,15.08
2023-05-06T21:33:00.844Z,14.76
2023-05-06T21:35:32.028Z,14.71
2023-05-06T21:37:59.863Z,14.48
2023-05-06T21:40:27.870Z,14.37
2023-05-06T21:42:56.261Z,14.22
2023-05-06T21:45:24.313Z,14.22
2023-05-06T21:47:53.588Z,14.21
2023-05-06T21:50:21.423Z,14.23
2023-05-06T21:52:49.223Z,13.93
2023-05-06T21:55:17.049Z,13.89
2023-05-06T21:57:46.257Z,13.83
2023-05-06T22:00:15.074Z,13.80
2023-05-06T22:02:46.307Z,13.89
2023-05-06T22:05:15.636Z,13.73
2023-05-06T22:07:43.499Z,13.68
2023-05-06T22:10:11.866Z,13.75
2023-05-06T22:12:39.743Z,13.89
2023-05-06T22:15:08.950Z,13.94
2023-05-06T22:17:37.971Z,14.14
2023-05-06T22:20:06.880Z,14.21
2023-05-06T22:22:36.570Z,14.18
2023-05-06T22:25:04.502Z,14.16
2023-05-06T22:27:32.489Z,14.14
2023-05-06T22:30:00.482Z,14.04
2023-05-06T22:32:28.483Z,14.04
2023-05-06T22:34:56.322Z,13.94
2023-05-06T22:37:24.123Z,13.90
2023-05-06T22:39:53.699Z,13.86
2023-05-06T22:42:21.566Z,13.87
2023-05-06T22:44:49.347Z,13.80
2023-05-06T22:47:19.634Z,13.82
2023-05-06T22:49:47.475Z,13.68
2023-05-06T22:52:15.373Z,13.57
2023-05-06T22:54:45.500Z,13.63
2023-05-06T22:57:15.143Z,13.63
2023-05-06T22:59:42.974Z,13.61
2023-05-06T23:02:10.813Z,13.59
2023-05-06T23:04:39.011Z,13.70
2023-05-06T23:07:09.779Z,13.74
2023-05-06T23:09:37.680Z,13.75
2023-05-06T23:12:06.177Z,13.73
2023-05-06T23:14:35.403Z,13.75
2023-05-06T23:17:03.127Z,13.65
2023-05-06T23:19:33.350Z,13.60
2023-05-06T23:22:01.047Z,13.60
2023-05-06T23:24:28.927Z,13.65
2023-05-06T23:26:57.355Z,13.63
2023-05-06T23:29:25.144Z,13.66
2023-05-06T23:31:54.336Z,13.77
2023-05-06T23:34:22.110Z,13.81
2023-05-06T23:36:49.970Z,13.73
2023-05-06T23:39:17.816Z,13.70
2023-05-06T23:41:45.651Z,13.82
2023-05-06T23:44:13.426Z,13.84
2023-05-06T23:46:41.351Z,13.81
2023-05-06T23:49:10.788Z,13.83
2023-05-06T23:51:38.677Z,13.72
2023-05-06T23:54:08.926Z,13.78
2023-05-06T23:56:36.975Z,13.72
2023-05-06T23:59:04.796Z,13.67
